Time;durP1;ratioP1;P1;durP2;ratioP2;P2;SDS_P1;SDS_P2;PMS_P1;PMS_P2;Temp;Humidity;BMP_temperature;BMP_pressure;BME280_temperature;BME280_humidity;BME280_pressure;Samples;Min_cycle;Max_cycle;Signal;HPM_P1;HPM_P2
2023/05/05 00:00:59;;;;;;;6.50;4.77;;;12.20;95.70;;;;;;5013280;28;20494;-68
2023/05/05 00:03:27;;;;;;;6.50;5.13;;;12.20;95.80;;;;;;5013533;28;20518;-68
2023/05/05 00:05:56;;;;;;;11.27;5.60;;;12.10;95.80;;;;;;5014212;28;20566;-68
2023/05/05 00:08:25;;;;;;;10.27;6.07;;;12.10;95.90;;;;;;5012565;28;20444;-69
2023/05/05 00:10:54;;;;;;;9.87;5.47;;;12.10;96.00;;;;;;5013759;28;20440;-68
2023/05/05 00:13:24;;;;;;;7.30;5.57;;;12.10;96.00;;;;;;5013987;28;20442;-68
2023/05/05 00:15:53;;;;;;;9.73;6.00;;;12.10;96.10;;;;;;5013829;28;20941;-68
2023/05/05 00:18:21;;;;;;;9.30;6.20;;;12.00;96.10;;;;;;5013608;28;20440;-68
2023/05/05 00:20:50;;;;;;;7.33;5.47;;;12.00;96.20;;;;;;5013630;28;20443;-68
2023/05/05 00:23:19;;;;;;;8.50;5.70;;;12.00;96.30;;;;;;5013729;28;20435;-69
2023/05/05 00:25:48;;;;;;;9.43;5.70;;;11.90;96.30;;;;;;5012204;28;20507;-68
2023/05/05 00:28:16;;;;;;;9.67;5.70;;;11.90;96.40;;;;;;5013566;28;20873;-68
2023/05/05 00:30:45;;;;;;;9.10;5.30;;;11.90;96.50;;;;;;5013556;28;20455;-68
2023/05/05 00:33:14;;;;;;;8.10;6.00;;;11.90;96.60;;;;;;5013427;28;20446;-68
2023/05/05 00:35:42;;;;;;;8.80;5.60;;;11.90;96.70;;;;;;5013288;28;20467;-69
2023/05/05 00:38:10;;;;;;;10.60;6.17;;;11.80;96.70;;;;;;5013474;28;20451;-69
2023/05/05 00:40:38;;;;;;;8.53;5.70;;;11.80;96.80;;;;;;5013939;28;20445;-68
2023/05/05 00:43:07;;;;;;;10.50;5.97;;;11.80;96.90;;;;;;5013429;28;20474;-68
2023/05/05 00:45:37;;;;;;;8.13;4.93;;;11.80;97.00;;;;;;5012231;28;20474;-68
2023/05/05 00:48:08;;;;;;;6.93;5.43;;;11.70;97.00;;;;;;5011932;28;20467;-68
2023/05/05 00:50:37;;;;;;;8.57;5.60;;;11.70;97.10;;;;;;5013862;28;20470;-68
2023/05/05 00:53:06;;;;;;;10.50;5.83;;;11.70;97.20;;;;;;5013261;28;20447;-68
2023/05/05 00:55:35;;;;;;;10.10;5.43;;;11.70;97.20;;;;;;5012022;28;20467;-68
2023/05/05 00:58:04;;;;;;;9.70;5.53;;;11.70;97.30;;;;;;5013537;28;20459;-68
2023/05/05 01:00:33;;;;;;;8.77;5.50;;;11.70;97.40;;;;;;5013223;28;20943;-68
2023/05/05 01:03:01;;;;;;;7.07;5.37;;;11.60;97.40;;;;;;5013204;28;20475;-68
2023/05/05 01:05:40;;;;;;;8.60;6.17;;;11.60;97.50;;;;;;5013067;28;20547;-68
2023/05/05 01:08:23;;;;;;;9.30;5.80;;;11.60;97.60;;;;;;5012210;28;20491;-68
2023/05/05 01:10:57;;;;;;;8.27;5.90;;;11.50;97.60;;;;;;5014380;28;20435;-69
2023/05/05 01:13:32;;;;;;;10.27;5.33;;;11.50;97.60;;;;;;5015492;28;20447;-69
2023/05/05 01:16:07;;;;;;;8.57;5.07;;;11.50;97.70;;;;;;5018040;28;20898;-69
2023/05/05 01:18:42;;;;;;;6.90;5.50;;;11.50;97.80;;;;;;5018301;28;20952;-69
2023/05/05 01:21:15;;;;;;;7.03;5.20;;;11.50;97.90;;;;;;5017479;28;20440;-68
2023/05/05 01:24:12;;;;;;;6.80;4.80;;;11.40;97.90;;;;;;5015755;28;20478;-68
2023/05/05 01:27:00;;;;;;;9.57;6.30;;;11.40;98.00;;;;;;5017658;28;20554;-68
2023/05/05 01:29:50;;;;;;;7.73;5.83;;;11.40;98.00;;;;;;5015621;28;20439;-68
2023/05/05 01:32:24;;;;;;;7.33;5.27;;;11.40;98.10;;;;;;5015426;28;20490;-68
2023/05/05 01:34:58;;;;;;;8.13;5.43;;;11.30;98.10;;;;;;5016988;28;20458;-68
2023/05/05 01:37:30;;;;;;;10.87;5.40;;;11.30;98.20;;;;;;5016665;28;20478;-69
2023/05/05 01:40:03;;;;;;;6.70;4.30;;;11.30;98.50;;;;;;5016836;28;20837;-68
2023/05/05 01:42:33;;;;;;;7.47;5.80;;;11.20;98.20;;;;;;5015137;28;20582;-68
2023/05/05 01:45:05;;;;;;;10.80;5.50;;;11.20;98.30;;;;;;5015066;28;20471;-68
2023/05/05 01:47:37;;;;;;;7.10;5.50;;;11.20;98.40;;;;;;5015062;28;20468;-68
2023/05/05 01:50:08;;;;;;;7.77;5.87;;;11.20;98.40;;;;;;5015073;28;20475;-68
2023/05/05 01:52:38;;;;;;;9.07;6.07;;;11.20;98.40;;;;;;5016485;28;20424;-68
2023/05/05 01:55:09;;;;;;;12.23;5.93;;;11.20;98.50;;;;;;5016224;28;20491;-68
2023/05/05 01:57:41;;;;;;;12.13;5.70;;;11.20;98.80;;;;;;5016351;28;20944;-68
2023/05/05 02:00:11;;;;;;;8.50;5.43;;;11.10;98.60;;;;;;5016587;28;20486;-68
2023/05/05 02:02:46;;;;;;;10.43;6.10;;;11.10;98.60;;;;;;5016232;28;20471;-68
2023/05/05 02:05:15;;;;;;;9.67;5.60;;;11.10;99.00;;;;;;5016007;28;20831;-68
2023/05/05 02:07:46;;;;;;;9.47;5.30;;;11.10;98.70;;;;;;5014509;28;20556;-68
2023/05/05 02:10:14;;;;;;;9.20;5.90;;;11.00;98.70;;;;;;5016409;28;20776;-68
2023/05/05 02:12:45;;;;;;;6.37;4.83;;;11.00;98.80;;;;;;5015726;28;20447;-68
2023/05/05 02:15:15;;;;;;;9.17;5.50;;;11.00;98.80;;;;;;5014421;28;20471;-68
2023/05/05 02:17:46;;;;;;;9.50;5.50;;;11.00;98.90;;;;;;5014593;28;20439;-68
2023/05/05 02:20:16;;;;;;;8.30;5.97;;;11.00;98.90;;;;;;5016315;28;20428;-68
2023/05/05 02:22:44;;;;;;;9.20;5.73;;;10.90;98.90;;;;;;5015520;28;20486;-68
2023/05/05 02:25:12;;;;;;;9.10;5.53;;;10.90;99.00;;;;;;5014379;28;20455;-69
2023/05/05 02:27:43;;;;;;;8.97;5.47;;;10.90;99.00;;;;;;5015320;28;20550;-68
2023/05/05 02:30:14;;;;;;;6.90;5.30;;;10.90;99.10;;;;;;5014471;28;20541;-68
2023/05/05 02:32:50;;;;;;;9.33;5.60;;;10.90;99.10;;;;;;5014194;28;20448;-68
2023/05/05 02:35:21;;;;;;;10.10;5.70;;;10.80;99.10;;;;;;5014619;28;20872;-69
2023/05/05 02:37:56;;;;;;;7.40;5.50;;;10.90;99.10;;;;;;5014192;28;20448;-68
2023/05/05 02:40:28;;;;;;;8.93;6.10;;;10.80;99.10;;;;;;5013975;28;20538;-68
2023/05/05 02:42:58;;;;;;;11.70;5.97;;;10.80;99.10;;;;;;5014198;28;20811;-68
2023/05/05 02:45:30;;;;;;;7.67;5.33;;;10.70;99.40;;;;;;5013845;28;20475;-68
2023/05/05 02:48:03;;;;;;;8.77;5.53;;;10.70;99.20;;;;;;5013547;28;20463;-68
2023/05/05 02:50:37;;;;;;;10.77;5.33;;;10.70;99.20;;;;;;5014307;28;20451;-68
2023/05/05 02:53:27;;;;;;;9.87;5.63;;;10.70;99.20;;;;;;5014943;28;20463;-68
2023/05/05 02:56:02;;;;;;;9.07;5.53;;;10.60;99.20;;;;;;5014060;28;20452;-68
2023/05/05 02:58:42;;;;;;;9.97;5.90;;;10.60;99.20;;;;;;5013900;28;20440;-68
2023/05/05 03:01:26;;;;;;;9.10;5.90;;;10.60;99.30;;;;;;5013882;28;20826;-68
2023/05/05 03:04:04;;;;;;;7.33;5.20;;;10.60;99.30;;;;;;5013480;28;20809;-68
2023/05/05 03:06:41;;;;;;;10.00;5.93;;;10.60;99.40;;;;;;5013487;28;20444;-68
2023/05/05 03:09:15;;;;;;;8.83;5.63;;;10.50;99.30;;;;;;5014275;28;20467;-68
2023/05/05 03:11:49;;;;;;;7.80;5.23;;;10.50;99.40;;;;;;5013467;28;20547;-68
2023/05/05 03:14:20;;;;;;;7.77;5.93;;;10.50;99.40;;;;;;5013298;28;20502;-68
2023/05/05 03:16:50;;;;;;;8.43;5.60;;;10.40;99.40;;;;;;5013313;28;20440;-68
2023/05/05 03:19:21;;;;;;;8.97;6.20;;;10.40;99.40;;;;;;5016499;28;20444;-68
2023/05/05 03:21:54;;;;;;;9.07;6.10;;;10.40;99.50;;;;;;5013887;28;20534;-68
2023/05/05 03:24:23;;;;;;;8.13;6.10;;;10.40;99.50;;;;;;5013423;28;20571;-68
2023/05/05 03:27:00;;;;;;;6.73;5.70;;;10.30;99.50;;;;;;5013319;28;20432;-68
2023/05/05 03:29:33;;;;;;;10.10;5.57;;;10.30;99.50;;;;;;5014191;28;20502;-68
2023/05/05 03:32:03;;;;;;;11.03;6.10;;;10.30;99.60;;;;;;5013210;28;20448;-68
2023/05/05 03:34:36;;;;;;;10.80;6.63;;;10.30;99.60;;;;;;5012975;28;20484;-68
2023/05/05 03:37:05;;;;;;;12.73;6.57;;;10.30;99.60;;;;;;5012967;28;20532;-67
2023/05/05 03:39:33;;;;;;;8.60;6.03;;;10.20;99.90;;;;;;5014264;28;20463;-68
2023/05/05 03:42:02;;;;;;;7.80;6.20;;;10.20;99.60;;;;;;5012962;28;20454;-68
2023/05/05 03:44:33;;;;;;;10.03;5.93;;;10.20;99.60;;;;;;5014035;28;20529;-68
2023/05/05 03:47:01;;;;;;;8.10;5.80;;;10.20;99.70;;;;;;5014072;28;20447;-68
2023/05/05 03:49:33;;;;;;;14.00;6.30;;;10.20;99.70;;;;;;5012578;28;20839;-68
2023/05/05 03:52:02;;;;;;;9.83;6.20;;;10.10;99.70;;;;;;5012514;28;20801;-68
2023/05/05 03:54:31;;;;;;;10.10;6.60;;;10.10;99.70;;;;;;5012487;28;20502;-67
2023/05/05 03:56:59;;;;;;;8.13;5.17;;;10.10;99.80;;;;;;5014441;28;20448;-67
2023/05/05 03:59:27;;;;;;;7.87;6.47;;;10.10;99.80;;;;;;5013335;28;20454;-67
2023/05/05 04:01:56;;;;;;;8.70;6.20;;;10.10;99.80;;;;;;5013021;28;20792;-68
2023/05/05 04:04:24;;;;;;;8.80;6.37;;;10.10;99.90;;;;;;5014286;28;20456;-67
2023/05/05 04:06:55;;;;;;;8.93;6.43;;;10.00;99.80;;;;;;5012685;28;20505;-67
2023/05/05 04:09:23;;;;;;;12.07;6.27;;;10.00;99.90;;;;;;5012582;28;20464;-68
2023/05/05 04:11:51;;;;;;;10.20;6.60;;;10.00;99.90;;;;;;5012545;28;20440;-67
2023/05/05 04:14:19;;;;;;;12.03;6.90;;;10.00;99.90;;;;;;5012163;28;20476;-68
2023/05/05 04:16:47;;;;;;;11.90;6.00;;;10.00;99.90;;;;;;5013716;28;20931;-68
2023/05/05 04:19:16;;;;;;;10.30;6.27;;;10.00;99.90;;;;;;5013866;28;20468;-68
2023/05/05 04:21:45;;;;;;;9.60;6.80;;;10.00;99.90;;;;;;5012695;28;20522;-67
2023/05/05 04:24:15;;;;;;;7.77;6.27;;;10.00;99.90;;;;;;5012122;28;20843;-68
2023/05/05 04:26:43;;;;;;;10.90;6.70;;;10.00;99.90;;;;;;5012518;28;20459;-68
2023/05/05 04:29:12;;;;;;;8.03;6.20;;;10.00;99.90;;;;;;5012231;28;20503;-67
2023/05/05 04:31:40;;;;;;;10.80;6.83;;;10.00;99.90;;;;;;5013848;28;20531;-68
2023/05/05 04:34:08;;;;;;;10.40;8.03;;;10.10;99.90;;;;;;5013466;28;20495;-68
2023/05/05 04:36:36;;;;;;;9.70;6.43;;;10.10;99.90;;;;;;5013624;28;20486;-68
2023/05/05 04:39:07;;;;;;;6.73;5.87;;;10.10;99.90;;;;;;5013139;28;20535;-67
2023/05/05 04:41:37;;;;;;;11.13;6.43;;;10.10;99.90;;;;;;5012003;28;20448;-67
2023/05/05 04:44:05;;;;;;;12.37;6.60;;;10.10;99.90;;;;;;5013368;28;20514;-68
2023/05/05 04:46:34;;;;;;;9.40;6.33;;;10.20;99.90;;;;;;5011998;28;20436;-68
2023/05/05 04:49:04;;;;;;;7.90;6.90;;;10.20;99.90;;;;;;5016176;28;20479;-68
2023/05/05 04:51:33;;;;;;;13.77;6.80;;;10.20;99.90;;;;;;5015942;28;20454;-68
2023/05/05 04:54:02;;;;;;;11.03;6.80;;;10.20;99.90;;;;;;5017005;28;20490;-67
2023/05/05 04:56:31;;;;;;;9.90;6.47;;;10.20;99.90;;;;;;5017681;28;20439;-67
2023/05/05 04:59:01;;;;;;;10.07;7.27;;;10.20;99.90;;;;;;5017594;28;20471;-68
2023/05/05 05:01:30;;;;;;;12.60;6.47;;;10.20;99.90;;;;;;5015687;28;20447;-67
2023/05/05 05:03:58;;;;;;;10.00;6.93;;;10.30;99.90;;;;;;5015549;28;20471;-67
2023/05/05 05:06:28;;;;;;;7.90;6.40;;;10.30;99.90;;;;;;5017501;28;20527;-67
2023/05/05 05:08:56;;;;;;;8.93;6.00;;;10.30;99.90;;;;;;5015561;28;20543;-67
2023/05/05 05:11:24;;;;;;;9.53;6.60;;;10.30;99.90;;;;;;5016854;28;20773;-68
2023/05/05 05:13:52;;;;;;;9.63;6.93;;;10.30;99.90;;;;;;5016552;28;20475;-68
2023/05/05 05:16:22;;;;;;;9.07;6.57;;;10.30;99.90;;;;;;5015353;28;20444;-68
2023/05/05 05:18:50;;;;;;;12.30;7.23;;;10.30;99.90;;;;;;5015514;28;20968;-68
2023/05/05 05:21:19;;;;;;;8.50;6.40;;;10.30;99.90;;;;;;5016635;28;20463;-68
2023/05/05 05:23:47;;;;;;;11.73;7.27;;;10.30;99.90;;;;;;5016601;28;20898;-68
2023/05/05 05:26:15;;;;;;;10.63;7.00;;;10.30;99.90;;;;;;5016501;28;20474;-68
2023/05/05 05:28:44;;;;;;;9.47;6.60;;;10.40;99.90;;;;;;5015139;28;20479;-68
2023/05/05 05:31:12;;;;;;;10.90;7.27;;;10.40;99.90;;;;;;5015143;28;20436;-68
2023/05/05 05:33:42;;;;;;;10.60;7.03;;;10.40;99.90;;;;;;5014974;28;20502;-68
2023/05/05 05:36:12;;;;;;;9.87;7.07;;;10.40;99.90;;;;;;5015230;28;20451;-68
2023/05/05 05:38:40;;;;;;;10.53;6.33;;;10.40;99.90;;;;;;5016455;28;20494;-69
2023/05/05 05:41:10;;;;;;;8.87;6.60;;;10.50;99.90;;;;;;5014924;28;20974;-68
2023/05/05 05:43:40;;;;;;;9.47;7.13;;;10.60;99.90;;;;;;5014920;28;20474;-68
2023/05/05 05:46:09;;;;;;;8.40;6.60;;;10.70;99.90;;;;;;5014733;28;20634;-68
2023/05/05 05:48:39;;;;;;;13.17;6.83;;;10.90;99.90;;;;;;5014777;28;20467;-67
2023/05/05 05:51:09;;;;;;;8.33;6.57;;;10.90;99.90;;;;;;5015186;28;20539;-68
2023/05/05 05:53:38;;;;;;;8.33;6.40;;;11.00;99.90;;;;;;5015800;28;20464;-68
2023/05/05 05:56:08;;;;;;;10.43;6.47;;;11.00;99.90;;;;;;5014543;28;20504;-68
2023/05/05 05:58:37;;;;;;;11.70;6.60;;;11.10;99.90;;;;;;5015287;28;20510;-68
2023/05/05 06:01:06;;;;;;;9.33;6.10;;;11.10;99.90;;;;;;5016293;28;20967;-67
2023/05/05 06:03:35;;;;;;;11.30;6.33;;;11.20;99.90;;;;;;5015396;28;20799;-68
2023/05/05 06:06:03;;;;;;;8.13;6.30;;;11.20;99.90;;;;;;5016028;28;20530;-68
2023/05/05 06:08:33;;;;;;;10.63;6.10;;;11.20;99.90;;;;;;5014452;28;20455;-68
2023/05/05 06:11:01;;;;;;;10.30;6.83;;;11.30;99.90;;;;;;5014285;28;20448;-68
2023/05/05 06:13:29;;;;;;;8.90;6.87;;;11.30;99.90;;;;;;5014180;28;20448;-68
2023/05/05 06:15:58;;;;;;;9.23;6.63;;;11.30;99.90;;;;;;5016575;28;20782;-68
2023/05/05 06:18:26;;;;;;;9.57;6.23;;;11.40;99.90;;;;;;5014520;28;20862;-67
2023/05/05 06:20:54;;;;;;;9.03;6.70;;;11.40;99.90;;;;;;5015628;28;20519;-68
2023/05/05 06:23:27;;;;;;;9.73;5.87;;;11.40;99.90;;;;;;5014482;28;20463;-67
2023/05/05 06:26:01;;;;;;;9.60;6.57;;;11.50;99.90;;;;;;5015992;28;20420;-69
2023/05/05 06:28:29;;;;;;;11.73;6.83;;;11.50;99.90;;;;;;5015279;28;20435;-67
2023/05/05 06:30:57;;;;;;;10.70;9.33;;;11.60;99.90;;;;;;5015437;28;20474;-68
2023/05/05 06:33:25;;;;;;;8.13;6.60;;;11.60;99.90;;;;;;5015224;28;20440;-68
2023/05/05 06:35:53;;;;;;;12.97;9.00;;;11.70;99.90;;;;;;5015322;28;20754;-68
2023/05/05 06:38:22;;;;;;;12.47;8.13;;;11.70;99.90;;;;;;5015681;28;20482;-68
2023/05/05 06:40:50;;;;;;;12.30;6.80;;;11.70;99.90;;;;;;5015048;28;20438;-68
2023/05/05 06:43:19;;;;;;;8.40;6.83;;;11.70;99.90;;;;;;5015215;28;20438;-68
2023/05/05 06:45:54;;;;;;;8.93;6.50;;;11.70;99.90;;;;;;5013945;28;20439;-68
2023/05/05 06:48:22;;;;;;;14.20;9.73;;;11.70;99.90;;;;;;5015265;28;20454;-68
2023/05/05 06:50:50;;;;;;;9.00;6.30;;;11.70;99.90;;;;;;5016111;28;20459;-68
2023/05/05 06:53:18;;;;;;;13.80;9.10;;;11.70;99.90;;;;;;5015385;28;20440;-68
2023/05/05 06:55:47;;;;;;;11.93;9.87;;;11.80;99.90;;;;;;5014916;28;20518;-68
2023/05/05 06:58:15;;;;;;;8.80;7.27;;;11.80;99.90;;;;;;5014873;28;20531;-68
2023/05/05 07:00:45;;;;;;;9.90;6.33;;;11.70;99.90;;;;;;5014721;28;21054;-68
2023/05/05 07:03:13;;;;;;;13.83;11.07;;;11.80;99.90;;;;;;5014951;28;20442;-68
2023/05/05 07:05:42;;;;;;;7.90;6.30;;;11.80;99.90;;;;;;5014810;28;20471;-68
2023/05/05 07:08:10;;;;;;;7.70;5.33;;;11.80;99.90;;;;;;5014732;28;20496;-68
2023/05/05 07:10:38;;;;;;;14.27;8.03;;;11.70;99.90;;;;;;5014536;28;20594;-68
2023/05/05 07:13:07;;;;;;;9.93;7.00;;;11.80;99.90;;;;;;5014590;28;20468;-68
2023/05/05 07:15:35;;;;;;;12.37;6.47;;;11.80;99.90;;;;;;5014584;28;20472;-68
2023/05/05 07:18:05;;;;;;;11.17;6.53;;;11.80;99.90;;;;;;5014791;28;20468;-68
2023/05/05 07:20:33;;;;;;;11.43;6.30;;;11.80;99.90;;;;;;5014599;28;20543;-68
2023/05/05 07:23:01;;;;;;;9.90;6.47;;;11.80;99.90;;;;;;5014392;28;20435;-68
2023/05/05 07:25:29;;;;;;;14.00;8.83;;;11.70;99.90;;;;;;5014210;28;20574;-68
2023/05/05 07:27:58;;;;;;;12.17;7.17;;;11.70;99.90;;;;;;5014314;28;20440;-68
2023/05/05 07:30:26;;;;;;;10.87;7.40;;;11.70;99.90;;;;;;5014105;28;20558;-69
2023/05/05 07:32:55;;;;;;;11.30;8.60;;;11.70;99.90;;;;;;5012846;28;20525;-69
2023/05/05 07:35:25;;;;;;;11.13;7.83;;;11.70;99.90;;;;;;5014027;28;21018;-69
2023/05/05 07:37:53;;;;;;;13.67;8.40;;;11.70;99.90;;;;;;5014116;28;20436;-70
2023/05/05 07:40:21;;;;;;;16.30;9.30;;;11.60;99.90;;;;;;5013923;28;20432;-70
2023/05/05 07:42:50;;;;;;;10.70;8.37;;;11.60;99.90;;;;;;5014159;28;21006;-69
2023/05/05 07:45:18;;;;;;;12.37;8.70;;;11.50;99.90;;;;;;5013697;28;20550;-69
2023/05/05 07:47:47;;;;;;;10.97;7.70;;;11.50;99.90;;;;;;5012567;28;20472;-70
2023/05/05 07:50:15;;;;;;;12.23;8.80;;;11.50;99.90;;;;;;5012364;28;20486;-69
2023/05/05 07:52:44;;;;;;;10.67;9.17;;;11.50;99.90;;;;;;5013825;28;20443;-69
2023/05/05 07:55:23;;;;;;;10.70;8.87;;;11.40;99.90;;;;;;5013811;28;20546;-69
2023/05/05 07:57:51;;;;;;;11.20;8.90;;;11.40;99.90;;;;;;5013887;28;20499;-69
2023/05/05 08:00:20;;;;;;;11.87;9.27;;;11.40;99.90;;;;;;5013603;28;20502;-69
2023/05/05 08:02:48;;;;;;;11.80;9.30;;;11.40;99.90;;;;;;5013716;28;20443;-69
2023/05/05 08:05:17;;;;;;;9.70;8.70;;;11.50;99.90;;;;;;5013530;28;20487;-69
2023/05/05 08:07:47;;;;;;;11.17;8.73;;;11.50;99.90;;;;;;5013545;28;20436;-69
2023/05/05 08:10:15;;;;;;;9.67;8.43;;;11.50;99.90;;;;;;5013646;28;20870;-69
2023/05/05 08:12:43;;;;;;;14.33;9.23;;;11.60;99.90;;;;;;5013342;28;20948;-69
2023/05/05 08:15:11;;;;;;;13.60;9.27;;;11.60;99.90;;;;;;5013362;28;20579;-69
2023/05/05 08:17:50;;;;;;;13.80;8.93;;;11.70;99.90;;;;;;5014045;28;20436;-69
2023/05/05 08:20:20;;;;;;;10.70;8.13;;;11.70;99.90;;;;;;5013800;28;20471;-68
2023/05/05 08:22:50;;;;;;;11.93;8.53;;;11.80;99.90;;;;;;5012459;28;20436;-68
2023/05/05 08:25:18;;;;;;;10.30;9.23;;;11.90;99.90;;;;;;5013307;28;20474;-68
2023/05/05 08:27:46;;;;;;;14.47;8.90;;;11.90;99.90;;;;;;5013436;28;20534;-68
2023/05/05 08:30:18;;;;;;;10.47;8.10;;;12.10;99.90;;;;;;5013319;28;20557;-68
2023/05/05 08:32:46;;;;;;;16.00;10.00;;;12.20;99.90;;;;;;5013460;28;20419;-68
2023/05/05 08:35:15;;;;;;;12.43;10.27;;;12.20;99.90;;;;;;5011866;28;20521;-68
2023/05/05 08:37:43;;;;;;;13.07;9.33;;;12.30;99.90;;;;;;5013426;28;20487;-69
2023/05/05 08:40:13;;;;;;;10.33;9.07;;;12.30;99.90;;;;;;5013262;28;20850;-68
2023/05/05 08:42:44;;;;;;;11.50;7.73;;;12.30;99.90;;;;;;5013492;28;20772;-68
2023/05/05 08:45:12;;;;;;;9.30;8.13;;;12.40;99.90;;;;;;5013485;28;20459;-68
2023/05/05 08:47:41;;;;;;;12.23;9.10;;;12.40;99.90;;;;;;5013271;28;20440;-69
2023/05/05 08:50:11;;;;;;;10.83;8.80;;;12.40;99.90;;;;;;5013183;28;20444;-68
2023/05/05 08:52:42;;;;;;;10.13;8.50;;;12.40;99.90;;;;;;5013289;28;20962;-68
2023/05/05 08:55:24;;;;;;;13.33;10.20;;;12.40;99.90;;;;;;5013217;28;20466;-69
2023/05/05 08:57:55;;;;;;;12.07;9.50;;;12.40;99.90;;;;;;5013170;28;20423;-69
2023/05/05 09:00:25;;;;;;;11.63;9.97;;;12.40;99.90;;;;;;5011929;28;20490;-69
2023/05/05 09:02:55;;;;;;;12.70;10.00;;;12.40;99.90;;;;;;5012982;28;20464;-69
2023/05/05 09:05:24;;;;;;;12.53;9.17;;;12.40;99.90;;;;;;5013171;28;20487;-69
2023/05/05 09:07:52;;;;;;;9.93;8.47;;;12.40;99.90;;;;;;5011859;28;20472;-69
2023/05/05 09:10:22;;;;;;;11.00;8.77;;;12.40;99.90;;;;;;5013089;28;20947;-70
2023/05/05 09:12:50;;;;;;;10.83;9.60;;;12.40;99.90;;;;;;5018889;28;20428;-69
2023/05/05 09:15:18;;;;;;;11.23;9.90;;;12.40;99.90;;;;;;5018435;28;20499;-70
2023/05/05 09:17:47;;;;;;;19.33;10.00;;;12.40;99.90;;;;;;5015005;28;20522;-70
2023/05/05 09:20:15;;;;;;;12.20;9.40;;;12.40;99.90;;;;;;5015519;28;20949;-69
2023/05/05 09:22:45;;;;;;;11.90;8.80;;;12.40;99.90;;;;;;5015830;28;21029;-69
2023/05/05 09:25:15;;;;;;;10.50;9.50;;;12.50;99.90;;;;;;5014675;28;20456;-69
2023/05/05 09:27:46;;;;;;;10.07;9.00;;;12.50;99.90;;;;;;5014314;28;20475;-69
2023/05/05 09:30:16;;;;;;;11.47;9.97;;;12.50;99.90;;;;;;5013235;28;20432;-69
2023/05/05 09:32:46;;;;;;;11.73;10.53;;;12.60;99.90;;;;;;5013318;28;20559;-69
2023/05/05 09:35:15;;;;;;;11.43;10.23;;;12.70;99.90;;;;;;5016075;28;20543;-69
2023/05/05 09:37:43;;;;;;;12.83;9.60;;;12.80;99.90;;;;;;5017172;28;20471;-69
2023/05/05 09:40:14;;;;;;;13.30;10.20;;;12.90;99.90;;;;;;5016796;28;20436;-69
2023/05/05 09:42:44;;;;;;;11.80;9.70;;;13.00;99.90;;;;;;5016234;28;20970;-69
2023/05/05 09:45:26;;;;;;;11.73;10.40;;;13.10;99.90;;;;;;5016132;28;20560;-69
2023/05/05 09:47:55;;;;;;;11.17;9.97;;;13.20;99.90;;;;;;5016268;28;20435;-69
2023/05/05 09:50:29;;;;;;;13.17;9.97;;;13.40;99.90;;;;;;5016648;28;20467;-69
2023/05/05 09:52:59;;;;;;;11.93;10.33;;;13.60;99.90;;;;;;5016178;28;20548;-69
2023/05/05 09:55:29;;;;;;;20.20;18.10;;;13.70;99.90;;;;;;5015841;28;20518;-69
2023/05/05 09:58:17;;;;;;;16.03;11.80;;;13.80;99.90;;;;;;5015961;28;20424;-69
2023/05/05 10:00:46;;;;;;;12.70;9.73;;;14.00;99.90;;;;;;5016358;28;20478;-69
2023/05/05 10:03:14;;;;;;;10.47;9.27;;;14.00;99.90;;;;;;5014524;28;20451;-69
2023/05/05 10:05:50;;;;;;;12.23;9.43;;;14.10;99.90;;;;;;5014555;28;20535;-68
2023/05/05 10:08:21;;;;;;;11.57;9.03;;;14.20;99.90;;;;;;5016088;28;20424;-69
2023/05/05 10:10:54;;;;;;;13.53;8.93;;;14.30;99.90;;;;;;5016340;28;20428;-68
2023/05/05 10:13:24;;;;;;;12.83;8.93;;;14.40;99.90;;;;;;5015691;28;20431;-69
2023/05/05 10:15:54;;;;;;;10.50;9.40;;;14.50;99.90;;;;;;5014380;28;20923;-68
2023/05/05 10:18:23;;;;;;;10.03;8.73;;;14.70;99.90;;;;;;5015804;28;20442;-68
2023/05/05 10:20:58;;;;;;;12.73;9.30;;;14.80;99.90;;;;;;5016118;28;20448;-69
2023/05/05 10:23:34;;;;;;;10.17;9.10;;;14.90;99.90;;;;;;5016854;28;20431;-68
2023/05/05 10:26:07;;;;;;;12.00;9.23;;;15.00;99.90;;;;;;5016300;28;20906;-69
2023/05/05 10:28:43;;;;;;;11.03;9.60;;;15.10;99.90;;;;;;5015664;28;20922;-68
2023/05/05 10:31:17;;;;;;;10.23;9.23;;;15.30;99.90;;;;;;5015469;28;20420;-68
2023/05/05 10:33:59;;;;;;;10.33;8.50;;;15.40;99.90;;;;;;5014284;28;20499;-68
2023/05/05 10:36:28;;;;;;;12.17;9.37;;;15.50;99.90;;;;;;5015749;28;20502;-68
2023/05/05 10:38:57;;;;;;;9.70;8.70;;;15.60;99.90;;;;;;5015647;28;20455;-69
2023/05/05 10:41:25;;;;;;;10.77;9.07;;;15.80;99.90;;;;;;5015292;28;20430;-68
2023/05/05 10:43:57;;;;;;;11.50;9.80;;;15.90;99.90;;;;;;5015604;28;21018;-69
2023/05/05 10:46:26;;;;;;;11.30;9.40;;;16.00;99.90;;;;;;5014586;28;20417;-68
2023/05/05 10:49:01;;;;;;;10.40;8.07;;;16.10;99.90;;;;;;5013812;28;20451;-68
2023/05/05 10:51:40;;;;;;;9.80;8.83;;;16.10;99.90;;;;;;5015567;28;20459;-68
2023/05/05 10:54:14;;;;;;;13.90;8.70;;;16.20;99.90;;;;;;5015580;28;20462;-68
2023/05/05 10:56:42;;;;;;;9.30;8.27;;;16.30;99.90;;;;;;5015233;28;20449;-68
2023/05/05 10:59:46;;;;;;;9.50;8.43;;;16.40;99.90;;;;;;5014963;28;20438;-68
2023/05/05 11:02:20;;;;;;;13.40;9.17;;;16.50;99.90;;;;;;5015275;28;20799;-68
2023/05/05 11:05:16;;;;;;;10.97;9.07;;;16.60;99.90;;;;;;5013507;28;20471;-68
2023/05/05 11:07:45;;;;;;;11.90;9.80;;;16.70;99.90;;;;;;5013822;28;20538;-68
2023/05/05 11:10:15;;;;;;;9.83;8.10;;;16.80;99.90;;;;;;5015022;28;20418;-68
2023/05/05 11:13:19;;;;;;;10.73;9.47;;;16.80;99.90;;;;;;5014631;28;20453;-68
2023/05/05 11:15:49;;;;;;;10.37;9.13;;;16.90;99.90;;;;;;5014850;28;20985;-68
2023/05/05 11:18:38;;;;;;;11.70;9.27;;;16.90;99.90;;;;;;5013453;28;20444;-68
2023/05/05 11:21:16;;;;;;;12.03;10.07;;;17.00;99.90;;;;;;5013501;28;20414;-68
2023/05/05 11:23:49;;;;;;;10.20;9.20;;;17.10;99.90;;;;;;5015011;28;20924;-68
2023/05/05 11:26:39;;;;;;;10.63;8.50;;;17.20;99.90;;;;;;5014840;28;20453;-68
2023/05/05 11:29:07;;;;;;;9.80;8.80;;;17.30;99.90;;;;;;5014393;28;20406;-68
2023/05/05 11:31:36;;;;;;;10.07;8.90;;;17.40;99.90;;;;;;5014338;28;20440;-68
2023/05/05 11:34:24;;;;;;;10.87;9.87;;;17.50;99.90;;;;;;5015624;28;20483;-68
2023/05/05 11:36:56;;;;;;;13.23;9.40;;;17.60;99.90;;;;;;5014717;28;20983;-68
2023/05/05 11:39:35;;;;;;;11.33;10.03;;;17.60;99.90;;;;;;5014835;28;20951;-68
2023/05/05 11:42:23;;;;;;;13.40;10.50;;;17.70;99.90;;;;;;5013024;28;20551;-68
2023/05/05 11:44:51;;;;;;;11.77;10.10;;;17.80;99.90;;;;;;5014515;28;20462;-67
2023/05/05 11:47:29;;;;;;;11.07;9.83;;;17.80;99.90;;;;;;5014214;28;20914;-68
2023/05/05 11:49:58;;;;;;;12.73;10.13;;;17.80;99.90;;;;;;5014082;28;20526;-68
2023/05/05 11:52:27;;;;;;;13.50;10.07;;;17.80;99.90;;;;;;5012794;28;20475;-68
2023/05/05 11:55:02;;;;;;;13.40;10.40;;;17.90;99.90;;;;;;5013808;28;20521;-68
2023/05/05 11:57:30;;;;;;;13.27;10.53;;;17.90;99.90;;;;;;5014540;28;20431;-68
2023/05/05 12:00:00;;;;;;;11.30;10.10;;;17.90;99.90;;;;;;5013924;28;20519;-68
2023/05/05 12:02:33;;;;;;;11.33;10.00;;;18.00;99.90;;;;;;5013927;28;20399;-68
2023/05/05 12:05:02;;;;;;;11.33;9.90;;;18.10;99.90;;;;;;5014027;28;20451;-68
2023/05/05 12:07:32;;;;;;;11.93;10.07;;;18.20;99.90;;;;;;5014231;28;20439;-68
2023/05/05 12:10:00;;;;;;;11.67;9.90;;;18.30;99.90;;;;;;5013810;28;20416;-68
2023/05/05 12:12:36;;;;;;;10.83;9.77;;;18.40;99.90;;;;;;5013695;28;20478;-68
2023/05/05 12:15:05;;;;;;;10.77;9.63;;;18.40;99.90;;;;;;5013816;28;21001;-68
2023/05/05 12:17:41;;;;;;;12.37;11.17;;;18.50;99.90;;;;;;5013699;28;20444;-68
2023/05/05 12:20:11;;;;;;;11.20;10.10;;;18.60;99.90;;;;;;5014252;28;20410;-68
2023/05/05 12:22:40;;;;;;;12.07;10.53;;;18.70;99.90;;;;;;5013705;28;20447;-68
2023/05/05 12:25:09;;;;;;;13.23;11.90;;;18.70;99.90;;;;;;5013856;28;20448;-68
2023/05/05 12:27:37;;;;;;;13.20;11.30;;;18.80;99.90;;;;;;5013582;28;20463;-68
2023/05/05 12:30:15;;;;;;;11.77;10.57;;;18.90;99.90;;;;;;5013924;28;20444;-68
2023/05/05 12:32:45;;;;;;;12.40;11.17;;;19.00;99.90;;;;;;5012281;28;20475;-68
2023/05/05 12:35:14;;;;;;;12.20;11.00;;;19.00;99.90;;;;;;5014265;28;20832;-68
2023/05/05 12:37:43;;;;;;;14.80;12.77;;;19.10;99.90;;;;;;5013457;28;20894;-68
2023/05/05 12:40:42;;;;;;;12.17;11.03;;;19.20;99.90;;;;;;5013596;28;20494;-68
2023/05/05 12:43:10;;;;;;;14.80;11.60;;;19.20;99.90;;;;;;5008035;28;20451;-68
2023/05/05 12:45:38;;;;;;;16.20;13.23;;;19.20;99.90;;;;;;5013204;28;20467;-69
2023/05/05 12:51:17;;;;;;;12.83;11.53;;;19.20;99.90;;;;;;5132627;27;21038;-69
2023/05/05 12:53:46;;;;;;;13.83;11.60;;;19.20;99.90;;;;;;5130287;28;20927;-69
2023/05/05 12:56:34;;;;;;;12.37;11.17;;;19.20;99.90;;;;;;5131822;27;20436;-69
2023/05/05 12:59:03;;;;;;;13.20;11.80;;;19.30;99.90;;;;;;5132217;27;20923;-69
2023/05/05 13:01:32;;;;;;;12.37;11.17;;;19.30;99.90;;;;;;5131862;27;20426;-70
2023/05/05 13:04:07;;;;;;;13.37;11.87;;;19.30;99.90;;;;;;5131746;27;20463;-69